createdAt,value
2023-10-23T00:00:52.104Z,4.63
2023-10-23T00:03:18.812Z,4.60
2023-10-23T00:05:45.661Z,5.43
2023-10-23T00:08:13.328Z,4.57
2023-10-23T00:10:40.004Z,5.88
2023-10-23T00:13:06.769Z,4.72
2023-10-23T00:15:33.620Z,4.88
2023-10-23T00:18:00.362Z,4.40
2023-10-23T00:20:57.352Z,5.35
2023-10-23T00:23:25.023Z,5.38
2023-10-23T00:25:51.650Z,5.63
2023-10-23T00:28:18.305Z,5.05
2023-10-23T00:30:45.323Z,5.38
2023-10-23T00:33:12.759Z,4.70
2023-10-23T00:35:39.483Z,5.15
2023-10-23T00:38:06.865Z,4.97
2023-10-23T00:40:33.607Z,5.13
2023-10-23T00:43:20.933Z,5.25
2023-10-23T00:46:01.831Z,4.90
2023-10-23T00:48:28.992Z,5.13
2023-10-23T00:50:59.466Z,4.68
2023-10-23T00:53:30.651Z,5.03
2023-10-23T00:55:59.210Z,4.70
2023-10-23T00:58:27.126Z,4.50
2023-10-23T01:00:55.796Z,5.35
2023-10-23T01:03:22.915Z,4.90
2023-10-23T01:05:50.094Z,4.80
2023-10-23T01:08:17.994Z,5.60
2023-10-23T01:10:47.054Z,4.72
2023-10-23T01:13:14.129Z,5.20
2023-10-23T01:15:41.121Z,5.05
2023-10-23T01:18:08.174Z,5.05
2023-10-23T01:20:34.894Z,5.05
2023-10-23T01:23:03.118Z,5.03
2023-10-23T01:25:30.548Z,4.93
2023-10-23T01:27:57.340Z,5.50
2023-10-23T01:30:26.030Z,4.50
2023-10-23T01:32:53.754Z,5.65
2023-10-23T01:35:20.582Z,5.07
2023-10-23T01:37:48.660Z,4.97
2023-10-23T01:40:15.944Z,4.75
2023-10-23T01:42:43.741Z,5.00
2023-10-23T01:45:11.228Z,6.10
2023-10-23T01:47:38.018Z,5.72
2023-10-23T01:50:05.101Z,5.80
2023-10-23T01:52:32.946Z,5.90
2023-10-23T01:55:00.709Z,6.25
2023-10-23T01:57:28.968Z,6.20
2023-10-23T01:59:56.691Z,6.35
2023-10-23T02:02:23.470Z,6.90
2023-10-23T02:04:50.287Z,7.28
2023-10-23T02:07:16.905Z,7.07
2023-10-23T02:09:43.660Z,6.57
2023-10-23T02:12:10.368Z,6.90
2023-10-23T02:14:37.167Z,8.80
2023-10-23T02:17:04.145Z,9.38
2023-10-23T02:19:31.579Z,8.65
2023-10-23T02:21:58.419Z,7.88
2023-10-23T02:24:25.159Z,6.85
2023-10-23T02:26:52.880Z,7.95
2023-10-23T02:29:19.674Z,8.13
2023-10-23T02:31:46.471Z,7.18
2023-10-23T02:34:13.225Z,6.82
2023-10-23T02:36:40.008Z,7.38
2023-10-23T02:39:07.362Z,6.03
2023-10-23T02:41:34.085Z,5.75
2023-10-23T02:44:01.938Z,5.72
2023-10-23T02:46:28.712Z,5.88
2023-10-23T02:48:55.619Z,5.47
2023-10-23T02:51:22.378Z,6.80
2023-10-23T02:53:49.062Z,4.97
2023-10-23T02:56:15.761Z,5.47
2023-10-23T02:58:42.448Z,5.72
2023-10-23T03:01:35.469Z,5.70
2023-10-23T03:06:30.049Z,5.80
2023-10-23T03:08:59.450Z,5.75
2023-10-23T03:11:27.086Z,7.03
2023-10-23T03:13:53.848Z,6.47
2023-10-23T03:16:20.698Z,6.30
2023-10-23T03:18:47.573Z,6.20
2023-10-23T03:21:14.284Z,7.22
2023-10-23T03:23:40.954Z,6.05
2023-10-23T03:26:08.000Z,6.63
2023-10-23T03:28:34.736Z,6.78
2023-10-23T03:31:02.681Z,6.60
2023-10-23T03:33:29.393Z,6.22
2023-10-23T03:35:56.327Z,6.93
2023-10-23T03:38:23.107Z,6.18
2023-10-23T03:41:00.714Z,6.57
2023-10-23T03:43:27.531Z,6.35
2023-10-23T03:45:54.541Z,5.80
2023-10-23T03:48:21.367Z,6.60
2023-10-23T03:50:48.174Z,5.90
2023-10-23T03:53:14.900Z,6.10
2023-10-23T03:55:42.162Z,5.78
2023-10-23T03:58:08.937Z,5.95
2023-10-23T04:00:35.760Z,6.18
2023-10-23T04:03:02.421Z,6.05
2023-10-23T04:05:29.022Z,5.90
2023-10-23T04:07:55.693Z,6.30
2023-10-23T04:10:22.450Z,6.47
2023-10-23T04:12:49.090Z,6.18
2023-10-23T04:15:16.907Z,6.72
2023-10-23T04:17:43.624Z,5.80
2023-10-23T04:20:11.787Z,6.35
2023-10-23T04:22:38.470Z,6.32
2023-10-23T04:25:05.415Z,7.15
2023-10-23T04:27:32.247Z,6.85
2023-10-23T04:30:00.976Z,7.43
2023-10-23T04:32:28.585Z,6.50
2023-10-23T04:34:55.466Z,6.78
2023-10-23T04:37:22.208Z,7.45
2023-10-23T04:39:48.896Z,7.20
2023-10-23T04:42:15.693Z,7.13
2023-10-23T04:44:42.310Z,7.07
2023-10-23T04:47:10.057Z,6.28
2023-10-23T04:49:36.899Z,6.70
2023-10-23T04:52:04.224Z,6.07
2023-10-23T04:54:31.143Z,6.53
2023-10-23T04:56:57.765Z,8.68
2023-10-23T04:59:24.407Z,7.50
2023-10-23T05:01:52.200Z,7.20
2023-10-23T05:04:19.073Z,6.55
2023-10-23T05:06:45.983Z,6.55
2023-10-23T05:09:13.884Z,6.75
2023-10-23T05:11:41.616Z,6.05
2023-10-23T05:14:08.241Z,6.30
2023-10-23T05:16:34.893Z,5.63
2023-10-23T05:19:01.612Z,6.70
2023-10-23T05:21:28.243Z,7.20
2023-10-23T05:23:54.925Z,5.50
2023-10-23T05:26:22.435Z,6.50
2023-10-23T05:28:52.569Z,6.43
2023-10-23T05:31:19.667Z,5.53
2023-10-23T05:33:47.388Z,5.93
2023-10-23T05:36:14.082Z,5.47
2023-10-23T05:38:40.831Z,5.88
2023-10-23T05:41:09.246Z,6.00
2023-10-23T05:43:36.799Z,5.82
2023-10-23T05:46:07.696Z,5.32
2023-10-23T05:48:35.876Z,5.45
2023-10-23T05:51:06.755Z,5.75
2023-10-23T05:53:35.909Z,5.28
2023-10-23T05:56:06.601Z,5.00
2023-10-23T05:58:34.535Z,5.20
2023-10-23T06:01:05.904Z,5.07
2023-10-23T06:03:32.753Z,4.93
2023-10-23T06:05:59.422Z,5.30
2023-10-23T06:08:26.045Z,5.97
2023-10-23T06:10:54.625Z,5.30
2023-10-23T06:13:24.139Z,5.18
2023-10-23T06:15:52.787Z,5.18
2023-10-23T06:18:19.660Z,5.72
2023-10-23T06:20:46.468Z,6.07
2023-10-23T06:23:13.159Z,6.22
2023-10-23T06:25:40.938Z,5.90
2023-10-23T06:28:08.353Z,5.75
2023-10-23T06:30:37.090Z,6.18
2023-10-23T06:33:04.176Z,6.30
2023-10-23T06:35:31.138Z,5.55
2023-10-23T06:37:57.898Z,5.63
2023-10-23T06:40:24.650Z,5.85
2023-10-23T06:42:52.252Z,5.55
2023-10-23T06:45:19.008Z,6.25
2023-10-23T06:47:50.144Z,6.00
2023-10-23T06:50:17.511Z,5.90
2023-10-23T06:52:46.092Z,5.70
2023-10-23T06:55:13.565Z,5.72
2023-10-23T06:57:40.278Z,5.95
2023-10-23T07:00:08.426Z,5.88
2023-10-23T07:02:35.268Z,6.43
2023-10-23T07:05:02.527Z,5.05
2023-10-23T07:07:30.684Z,5.75
2023-10-23T07:10:00.832Z,6.22
2023-10-23T07:12:28.400Z,5.53
2023-10-23T07:14:55.100Z,6.07
2023-10-23T07:17:22.030Z,6.43
2023-10-23T07:19:48.755Z,6.78
2023-10-23T07:22:15.432Z,6.20
2023-10-23T07:24:42.123Z,7.00
2023-10-23T07:27:13.115Z,6.65
2023-10-23T07:29:40.476Z,6.45
2023-10-23T07:32:07.789Z,5.88
2023-10-23T07:34:34.590Z,7.75
2023-10-23T07:37:01.375Z,7.15
2023-10-23T07:39:29.092Z,6.70
2023-10-23T07:41:56.231Z,6.35
2023-10-23T07:44:23.965Z,5.10
2023-10-23T07:46:50.982Z,4.60
2023-10-23T07:49:17.887Z,4.60
2023-10-23T07:51:45.912Z,4.10
2023-10-23T07:54:12.586Z,4.78
2023-10-23T07:56:39.261Z,4.53
2023-10-23T07:59:07.208Z,4.40
2023-10-23T08:01:33.935Z,4.32
2023-10-23T08:04:00.830Z,4.72
2023-10-23T08:06:27.843Z,4.00
2023-10-23T08:08:54.575Z,4.40
2023-10-23T08:11:21.196Z,4.82
2023-10-23T08:13:48.817Z,4.00
2023-10-23T08:16:15.657Z,4.50
2023-10-23T08:18:42.864Z,4.45
2023-10-23T08:21:11.882Z,4.88
2023-10-23T08:23:39.618Z,4.57
2023-10-23T08:26:06.806Z,4.65
2023-10-23T08:28:54.034Z,4.78
2023-10-23T08:31:34.391Z,5.15
2023-10-23T08:34:06.100Z,4.72
2023-10-23T08:36:33.814Z,4.95
2023-10-23T08:39:00.759Z,4.13
2023-10-23T08:41:27.738Z,4.03
2023-10-23T08:43:56.415Z,3.72
2023-10-23T08:46:27.059Z,3.75
2023-10-23T08:48:54.047Z,4.40
2023-10-23T08:51:20.876Z,4.75
2023-10-23T08:54:09.313Z,4.65
2023-10-23T08:56:41.118Z,6.05
2023-10-23T08:59:10.595Z,5.47
2023-10-23T09:01:38.709Z,4.90
2023-10-23T09:04:07.355Z,5.63
2023-10-23T09:06:34.953Z,5.45
2023-10-23T09:09:02.742Z,5.50
2023-10-23T09:11:47.002Z,6.60
2023-10-23T09:14:28.414Z,5.40
2023-10-23T09:16:58.137Z,4.97
2023-10-23T09:19:41.012Z,4.63
2023-10-23T09:22:08.454Z,3.90
2023-10-23T09:24:36.903Z,4.93
2023-10-23T09:27:04.429Z,4.30
2023-10-23T09:29:31.829Z,3.72
2023-10-23T09:32:00.174Z,4.32
2023-10-23T09:34:29.211Z,3.80
2023-10-23T09:36:56.980Z,3.72
2023-10-23T09:39:24.139Z,3.35
2023-10-23T09:41:56.554Z,3.63
2023-10-23T09:44:25.585Z,4.03
2023-10-23T09:46:53.219Z,3.90
2023-10-23T09:49:21.817Z,3.88
2023-10-23T09:51:50.004Z,3.55
2023-10-23T09:54:23.681Z,3.70
2023-10-23T09:56:54.799Z,3.97
2023-10-23T09:59:35.019Z,3.63
2023-10-23T10:02:03.174Z,4.00
2023-10-23T10:04:34.177Z,4.43
2023-10-23T10:07:41.367Z,3.67
2023-10-23T10:10:09.009Z,3.33
2023-10-23T10:12:39.714Z,3.40
2023-10-23T10:15:10.661Z,3.13
2023-10-23T10:17:45.258Z,3.45
2023-10-23T10:20:12.726Z,3.38
2023-10-23T10:22:44.858Z,3.83
2023-10-23T10:25:13.050Z,4.22
2023-10-23T10:27:40.248Z,3.70
2023-10-23T10:30:27.702Z,3.70
2023-10-23T10:34:25.547Z,4.05
2023-10-23T10:35:53.980Z,3.90
2023-10-23T10:38:24.537Z,4.50
2023-10-23T10:41:19.290Z,4.10
2023-10-23T10:43:53.459Z,4.03
2023-10-23T10:46:27.794Z,4.32
2023-10-23T10:48:56.197Z,4.70
2023-10-23T10:51:24.920Z,3.78
2023-10-23T10:54:03.505Z,3.72
2023-10-23T10:56:30.896Z,4.38
2023-10-23T10:59:01.644Z,3.45
2023-10-23T11:01:28.424Z,3.60
2023-10-23T11:03:55.204Z,3.70
2023-10-23T11:06:21.934Z,4.22
2023-10-23T11:08:48.820Z,3.95
2023-10-23T11:11:15.845Z,3.90
2023-10-23T11:13:42.539Z,4.57
2023-10-23T11:16:09.351Z,3.55
2023-10-23T11:18:36.486Z,3.63
2023-10-23T11:21:03.919Z,4.32
2023-10-23T11:23:33.644Z,4.43
2023-10-23T11:26:00.389Z,4.10
2023-10-23T11:28:27.070Z,4.18
2023-10-23T11:30:59.368Z,4.05
2023-10-23T11:33:27.315Z,4.38
2023-10-23T11:35:54.243Z,4.00
2023-10-23T11:38:25.202Z,3.83
2023-10-23T11:40:54.543Z,3.92
2023-10-23T11:43:21.343Z,4.00
2023-10-23T11:45:49.340Z,3.78
2023-10-23T11:48:16.404Z,4.20
2023-10-23T11:50:43.699Z,4.45
2023-10-23T11:53:11.416Z,4.75
2023-10-23T11:55:39.340Z,3.85
2023-10-23T11:58:06.163Z,4.30
2023-10-23T12:00:35.916Z,4.45
2023-10-23T12:03:02.887Z,3.90
2023-10-23T12:05:29.904Z,4.63
2023-10-23T12:07:57.437Z,5.10
2023-10-23T12:10:26.061Z,4.80
2023-10-23T12:12:54.051Z,5.72
2023-10-23T12:15:22.231Z,5.07
2023-10-23T12:17:49.115Z,5.35
2023-10-23T12:20:17.227Z,4.80
2023-10-23T12:22:46.661Z,4.82
2023-10-23T12:25:17.425Z,4.80
2023-10-23T12:27:44.224Z,5.60
2023-10-23T12:30:14.220Z,4.95
2023-10-23T12:33:15.132Z,4.60
2023-10-23T12:35:30.868Z,5.15
2023-10-23T12:37:57.685Z,4.78
2023-10-23T12:40:27.117Z,4.93
2023-10-23T12:42:56.600Z,5.47
2023-10-23T12:45:23.371Z,5.43
2023-10-23T12:47:50.121Z,5.72
2023-10-23T12:50:16.963Z,5.90
2023-10-23T12:52:44.088Z,4.50
2023-10-23T12:55:11.854Z,5.80
2023-10-23T12:57:38.465Z,5.00
2023-10-23T13:00:05.842Z,4.70
2023-10-23T13:02:32.497Z,5.00
2023-10-23T13:05:00.904Z,4.53
2023-10-23T13:07:27.721Z,5.20
2023-10-23T13:09:54.335Z,4.60
2023-10-23T13:12:22.169Z,4.95
2023-10-23T13:14:48.893Z,4.30
2023-10-23T13:17:15.773Z,4.32
2023-10-23T13:19:42.425Z,3.58
2023-10-23T13:22:11.756Z,3.58
2023-10-23T13:24:38.748Z,3.72
2023-10-23T13:27:05.404Z,4.00
2023-10-23T13:29:33.682Z,4.03
2023-10-23T13:32:01.314Z,4.47
2023-10-23T13:34:28.399Z,4.40
2023-10-23T13:36:55.147Z,3.90
2023-10-23T13:39:21.952Z,4.63
2023-10-23T13:41:49.006Z,4.00
2023-10-23T13:44:15.759Z,4.90
2023-10-23T13:46:43.852Z,5.57
2023-10-23T13:49:10.663Z,5.10
2023-10-23T13:51:37.566Z,8.30
2023-10-23T13:54:04.649Z,6.78
2023-10-23T13:56:31.309Z,6.72
2023-10-23T13:58:57.919Z,4.72
2023-10-23T14:01:24.929Z,5.38
2023-10-23T14:03:53.513Z,4.82
2023-10-23T14:06:21.372Z,6.22
2023-10-23T14:09:42.476Z,5.72
2023-10-23T14:12:00.417Z,5.35
2023-10-23T14:14:22.679Z,5.22
2023-10-23T14:16:49.890Z,5.65
2023-10-23T14:19:33.653Z,5.45
2023-10-23T14:22:05.384Z,5.05
2023-10-23T14:24:32.069Z,4.90
2023-10-23T14:26:58.740Z,4.95
2023-10-23T14:29:25.876Z,5.35
2023-10-23T14:31:52.590Z,5.30
2023-10-23T14:34:19.369Z,6.07
2023-10-23T14:36:46.161Z,6.22
2023-10-23T14:39:12.835Z,6.70
2023-10-23T14:41:39.492Z,5.70
2023-10-23T14:44:06.432Z,5.47
2023-10-23T14:46:35.415Z,6.53
2023-10-23T14:49:04.036Z,7.05
2023-10-23T14:51:30.919Z,6.20
2023-10-23T14:53:57.593Z,6.95
2023-10-23T14:56:24.215Z,6.10
2023-10-23T14:58:50.876Z,6.07
2023-10-23T15:01:17.768Z,6.10
2023-10-23T15:03:44.594Z,6.10
2023-10-23T15:06:12.474Z,6.10
2023-10-23T15:08:40.308Z,6.35
2023-10-23T15:11:07.316Z,6.38
2023-10-23T15:13:34.089Z,6.95
2023-10-23T15:16:04.097Z,7.53
2023-10-23T15:18:31.675Z,5.95
2023-10-23T15:21:02.853Z,7.03
2023-10-23T15:23:29.710Z,6.20
2023-10-23T15:25:56.576Z,6.47
2023-10-23T15:28:24.615Z,8.18
2023-10-23T15:30:57.473Z,8.20
2023-10-23T15:33:25.349Z,8.55
2023-10-23T15:35:53.928Z,7.15
2023-10-23T15:38:27.880Z,7.78
2023-10-23T15:41:04.099Z,6.53
2023-10-23T15:43:30.856Z,7.70
2023-10-23T15:45:58.241Z,7.72
2023-10-23T15:48:25.481Z,7.35
2023-10-23T15:50:52.294Z,8.07
2023-10-23T15:53:19.055Z,8.63
2023-10-23T15:55:48.148Z,7.78
2023-10-23T15:58:14.844Z,9.00
2023-10-23T16:00:42.245Z,8.73
2023-10-23T16:03:09.023Z,7.97
2023-10-23T16:05:35.788Z,8.23
2023-10-23T16:08:02.481Z,9.45
2023-10-23T16:10:33.221Z,8.60
2023-10-23T16:12:59.994Z,9.35
2023-10-23T16:15:26.691Z,10.07
2023-10-23T16:17:53.549Z,9.90
2023-10-23T16:20:20.274Z,9.63
2023-10-23T16:22:47.025Z,9.85
2023-10-23T16:25:13.945Z,8.90
2023-10-23T16:27:40.622Z,9.48
2023-10-23T16:30:07.991Z,8.88
2023-10-23T16:32:34.832Z,8.65
2023-10-23T16:35:01.532Z,9.45
2023-10-23T16:37:32.116Z,8.32
2023-10-23T16:39:58.897Z,9.10
2023-10-23T16:42:25.536Z,9.00
2023-10-23T16:44:56.370Z,8.80
2023-10-23T16:47:24.751Z,8.77
2023-10-23T16:49:53.524Z,9.32
2023-10-23T16:52:20.325Z,9.80
2023-10-23T16:54:47.769Z,8.68
2023-10-23T16:57:14.515Z,11.23
2023-10-23T16:59:41.485Z,10.68
2023-10-23T17:02:09.025Z,11.10
2023-10-23T17:04:35.789Z,12.05
2023-10-23T17:07:02.624Z,11.45
2023-10-23T17:09:29.598Z,12.27
2023-10-23T17:11:56.346Z,12.38
2023-10-23T17:14:23.000Z,13.68
2023-10-23T17:16:50.106Z,13.93
2023-10-23T17:19:16.851Z,14.57
2023-10-23T17:21:43.513Z,15.38
2023-10-23T17:24:10.427Z,16.13
2023-10-23T17:26:37.099Z,17.83
2023-10-23T17:29:03.793Z,17.00
2023-10-23T17:31:30.522Z,17.98
2023-10-23T17:33:57.300Z,17.73
2023-10-23T17:36:27.209Z,18.98
2023-10-23T17:38:55.151Z,20.23
2023-10-23T17:41:22.043Z,19.25
2023-10-23T17:43:48.912Z,20.48
2023-10-23T17:46:15.777Z,20.92
2023-10-23T17:48:43.406Z,19.95
2023-10-23T17:51:11.448Z,20.55
2023-10-23T17:53:44.343Z,21.63
2023-10-23T17:56:20.403Z,20.30
2023-10-23T17:58:47.062Z,21.83
2023-10-23T18:01:15.333Z,22.92
2023-10-23T18:03:42.879Z,21.35
2023-10-23T18:06:11.301Z,23.17
2023-10-23T18:08:38.080Z,22.48
2023-10-23T18:11:05.683Z,21.88
2023-10-23T18:13:32.441Z,21.02
2023-10-23T18:16:00.457Z,24.40
2023-10-23T18:18:27.202Z,23.10
2023-10-23T18:20:55.138Z,23.40
2023-10-23T18:23:22.813Z,22.55
2023-10-23T18:25:50.110Z,22.00
2023-10-23T18:28:17.114Z,26.88
2023-10-23T18:30:44.187Z,25.55
2023-10-23T18:33:13.773Z,23.52
2023-10-23T18:35:40.840Z,21.77
2023-10-23T18:38:07.709Z,23.50
2023-10-23T18:40:36.043Z,24.00
2023-10-23T18:43:04.812Z,23.67
2023-10-23T18:45:31.572Z,24.02
2023-10-23T18:47:58.630Z,22.80
2023-10-23T18:50:25.383Z,22.42
2023-10-23T18:52:52.161Z,21.63
2023-10-23T18:55:19.106Z,20.23
2023-10-23T18:57:45.811Z,19.83
2023-10-23T19:00:13.078Z,19.55
2023-10-23T19:02:39.826Z,19.30
2023-10-23T19:05:07.048Z,19.92
2023-10-23T19:07:35.044Z,18.98
2023-10-23T19:14:43.150Z,17.85
2023-10-23T19:17:14.354Z,18.98
2023-10-23T19:19:45.923Z,18.98
2023-10-23T19:22:13.362Z,20.23
2023-10-23T19:24:40.398Z,18.95
2023-10-23T19:27:07.132Z,17.90
2023-10-23T19:29:33.836Z,16.17
2023-10-23T19:32:00.794Z,17.70
2023-10-23T19:34:31.774Z,16.67
2023-10-23T19:37:00.004Z,15.90
2023-10-23T19:39:27.376Z,16.48
2023-10-23T19:41:59.545Z,14.85
2023-10-23T19:44:27.653Z,15.43
2023-10-23T19:46:54.857Z,14.65
2023-10-23T19:49:21.989Z,13.10
2023-10-23T19:51:51.231Z,13.70
2023-10-23T19:54:38.960Z,13.13
2023-10-23T19:57:06.196Z,12.20
2023-10-23T19:59:32.887Z,12.80
2023-10-23T20:02:02.135Z,12.73
2023-10-23T20:04:29.086Z,11.70
2023-10-23T20:06:55.858Z,10.98
2023-10-23T20:09:22.535Z,11.13
2023-10-23T20:11:49.144Z,11.02
2023-10-23T20:14:17.433Z,10.10
2023-10-23T20:16:45.208Z,9.30
2023-10-23T20:19:13.633Z,8.95
2023-10-23T20:21:40.394Z,8.77
2023-10-23T20:24:07.532Z,8.13
2023-10-23T20:26:34.311Z,7.97
2023-10-23T20:29:01.073Z,6.82
2023-10-23T20:31:27.912Z,6.88
2023-10-23T20:33:54.669Z,6.53
2023-10-23T20:36:21.464Z,5.30
2023-10-23T20:38:48.536Z,5.68
2023-10-23T20:41:19.474Z,5.15
2023-10-23T20:43:47.916Z,6.05
2023-10-23T20:46:15.099Z,5.43
2023-10-23T20:48:41.975Z,5.07
2023-10-23T20:51:10.721Z,5.70
2023-10-23T20:53:37.437Z,5.60
2023-10-23T20:56:04.481Z,5.10
2023-10-23T20:58:32.117Z,5.50
2023-10-23T21:01:06.777Z,5.68
2023-10-23T21:03:34.138Z,5.53
2023-10-23T21:06:06.571Z,4.85
2023-10-23T21:08:37.887Z,5.32
2023-10-23T21:11:06.750Z,4.60
2023-10-23T21:13:34.129Z,5.13
2023-10-23T21:16:01.596Z,5.28
2023-10-23T21:18:28.754Z,4.38
2023-10-23T21:20:56.839Z,5.90
2023-10-23T21:23:23.706Z,5.40
2023-10-23T21:25:53.231Z,4.32
2023-10-23T21:28:24.572Z,4.68
2023-10-23T21:30:51.357Z,4.80
2023-10-23T21:33:52.810Z,5.13
2023-10-23T21:36:19.419Z,4.47
2023-10-23T21:38:46.029Z,4.18
2023-10-23T21:41:12.616Z,4.25
2023-10-23T21:43:39.213Z,3.83
2023-10-23T21:46:16.724Z,3.88
2023-10-23T21:48:44.339Z,4.35
2023-10-23T21:51:11.023Z,4.07
2023-10-23T21:53:37.991Z,4.35
2023-10-23T21:56:05.088Z,4.63
2023-10-23T21:59:02.072Z,4.63
2023-10-23T22:01:21.212Z,3.97
2023-10-23T22:03:48.794Z,3.22
2023-10-23T22:06:15.956Z,4.03
2023-10-23T22:08:44.789Z,3.80
2023-10-23T22:11:11.863Z,4.15
2023-10-23T22:13:39.092Z,3.58
2023-10-23T22:16:06.085Z,3.70
2023-10-23T22:18:34.956Z,3.65
2023-10-23T22:21:02.071Z,3.70
2023-10-23T22:23:28.701Z,4.63
2023-10-23T22:25:57.044Z,3.90
2023-10-23T22:28:25.749Z,3.58
2023-10-23T22:30:52.796Z,3.85
2023-10-23T22:33:19.604Z,4.18
2023-10-23T22:35:46.870Z,3.83
2023-10-23T22:38:14.852Z,4.22
2023-10-23T22:40:43.100Z,4.60
2023-10-23T22:43:10.115Z,4.85
2023-10-23T22:45:44.230Z,4.72
2023-10-23T22:48:22.204Z,4.88
2023-10-23T22:50:49.190Z,5.63
2023-10-23T22:53:16.208Z,5.25
2023-10-23T22:55:43.127Z,5.50
2023-10-23T22:58:12.140Z,5.40
2023-10-23T23:00:39.163Z,5.30
2023-10-23T23:03:06.112Z,5.60
2023-10-23T23:05:32.991Z,6.07
2023-10-23T23:08:02.688Z,6.20
2023-10-23T23:10:29.882Z,6.68
2023-10-23T23:12:57.523Z,7.40
2023-10-23T23:15:24.344Z,7.20
2023-10-23T23:17:51.703Z,7.38
2023-10-23T23:20:22.891Z,7.70
2023-10-23T23:22:49.678Z,7.75
2023-10-23T23:25:16.461Z,7.72
2023-10-23T23:27:43.139Z,7.43
2023-10-23T23:30:10.670Z,6.97
2023-10-23T23:32:37.541Z,7.20
2023-10-23T23:35:04.653Z,7.53
2023-10-23T23:37:31.393Z,6.90
2023-10-23T23:39:58.103Z,6.75
2023-10-23T23:42:24.706Z,6.50
2023-10-23T23:44:51.263Z,7.07
2023-10-23T23:47:17.926Z,7.45
2023-10-23T23:49:44.562Z,8.45
2023-10-23T23:52:11.239Z,7.55
2023-10-23T23:54:37.940Z,7.82
2023-10-23T23:57:04.591Z,7.40
2023-10-23T23:59:31.205Z,7.10
